createdAt,value
2023-01-08T00:04:22.737Z,3.1
2023-01-08T00:09:34.435Z,3.6
2023-01-08T00:20:06.235Z,3.7
2023-01-08T00:25:18.594Z,4.9
2023-01-08T00:41:21.604Z,4.2
2023-01-08T00:51:53.108Z,4.6
2023-01-08T01:13:08.427Z,5.7
2023-01-08T01:23:41.025Z,3.4
2023-01-08T01:34:31.722Z,3.2
2023-01-08T01:50:25.807Z,9.6
2023-01-08T01:55:41.473Z,5.9
2023-01-08T02:11:37.368Z,3.3
2023-01-08T02:27:31.069Z,2.9
2023-01-08T02:43:26.677Z,4.8
2023-01-08T02:48:38.590Z,4.4
2023-01-08T02:53:47.859Z,5.7
2023-01-08T02:58:59.522Z,5.7
2023-01-08T03:20:16.292Z,5.4
2023-01-08T03:25:27.543Z,4.7
2023-01-08T03:41:22.521Z,4.1
2023-01-08T03:46:31.738Z,3.4
2023-01-08T03:57:04.063Z,2.6
2023-01-08T04:07:37.763Z,2.6
2023-01-08T04:12:51.054Z,2.4
2023-01-08T04:18:02.592Z,3.2
2023-01-08T04:23:13.767Z,2.6
2023-01-08T04:28:25.441Z,3.2
2023-01-08T04:38:58.200Z,1.9
2023-01-08T04:44:11.404Z,1.8
2023-01-08T04:49:23.704Z,1.9
2023-01-08T04:59:54.642Z,2
2023-01-08T05:21:10.869Z,2.8
2023-01-08T05:31:52.653Z,5
2023-01-08T05:37:05.202Z,24.4
2023-01-08T05:42:17.260Z,4.1
2023-01-08T05:47:28.190Z,3.2
2023-01-08T05:52:40.254Z,5.5
2023-01-08T05:57:49.974Z,28.4
2023-01-08T06:03:05.079Z,68.7
2023-01-08T06:08:14.782Z,54.3
2023-01-08T06:13:30.488Z,36.2
2023-01-08T06:18:46.232Z,12.7
2023-01-08T06:23:56.397Z,10.7
2023-01-08T06:29:09.032Z,5.7
2023-01-08T06:39:42.369Z,4.8
2023-01-08T06:50:18.903Z,7.9
2023-01-08T06:55:31.241Z,5.9
2023-01-08T07:06:06.840Z,4.6
2023-01-08T07:11:13.236Z,3.6
2023-01-08T07:16:29.618Z,9.6
2023-01-08T07:21:42.528Z,5.8
2023-01-08T07:26:52.803Z,3
2023-01-08T07:37:26.105Z,3.6
2023-01-08T07:47:57.696Z,6.6
2023-01-08T07:53:09.167Z,3.1
2023-01-08T07:58:24.684Z,6.7
2023-01-08T08:03:38.638Z,19.4
2023-01-08T08:08:48.921Z,4.8
2023-01-08T08:14:02.768Z,3.9
2023-01-08T08:24:36.215Z,4.7
2023-01-08T08:40:31.490Z,3.7
2023-01-08T08:51:10.473Z,5.7
2023-01-08T08:56:16.057Z,4.3
2023-01-08T09:01:28.622Z,3.2
2023-01-08T09:17:29.144Z,77.1
2023-01-08T09:22:39.730Z,8.7
2023-01-08T09:27:52.125Z,5.9
2023-01-08T09:38:30.111Z,6.5
2023-01-08T09:48:59.285Z,6.3
2023-01-08T09:54:10.294Z,6.6
2023-01-08T09:59:25.740Z,5.2
2023-01-08T10:25:54.304Z,7.6
2023-01-08T10:36:30.402Z,6.1
2023-01-08T10:41:43.900Z,6.6
2023-01-08T10:46:54.764Z,10.7
2023-01-08T10:52:05.698Z,5.9
2023-01-08T11:02:38.538Z,10.3
2023-01-08T11:08:22.580Z,6.9
2023-01-08T11:18:51.236Z,23.1
2023-01-08T11:24:07.250Z,4.6
2023-01-08T11:29:17.215Z,5
2023-01-08T11:45:14.352Z,3.6
2023-01-08T11:55:48.427Z,7.7
2023-01-08T12:00:59.709Z,6.7
2023-01-08T12:06:16.797Z,17.8
2023-01-08T12:11:32.428Z,11
2023-01-08T12:16:47.067Z,6.2
2023-01-08T12:21:57.589Z,5.6
2023-01-08T12:27:09.697Z,4.7
2023-01-08T12:37:40.693Z,5
2023-01-08T12:43:01.901Z,5.6
2023-01-08T12:48:01.428Z,7.3
2023-01-08T12:53:13.514Z,7.5
2023-01-08T12:58:24.831Z,58.4
2023-01-08T13:03:39.871Z,13.9
2023-01-08T13:08:53.181Z,6.8
2023-01-08T13:14:03.381Z,7.1
2023-01-08T13:19:15.581Z,6.4
2023-01-08T13:29:51.178Z,7
2023-01-08T13:35:03.138Z,8.5
2023-01-08T13:40:13.525Z,6
2023-01-08T14:01:27.011Z,6.5
2023-01-08T14:12:00.597Z,8.7
2023-01-08T14:17:15.644Z,31.6
2023-01-08T14:22:30.814Z,11.3
2023-01-08T14:27:47.267Z,36.9
2023-01-08T14:32:57.539Z,25.9
2023-01-08T14:38:13.284Z,15.5
2023-01-08T14:43:30.829Z,10.5
2023-01-08T14:48:47.153Z,14.2
2023-01-08T14:53:59.054Z,12.7
2023-01-08T15:04:35.005Z,10.4
2023-01-08T15:15:05.614Z,11.2
2023-01-08T15:20:23.604Z,23
2023-01-08T15:25:29.838Z,13.3
2023-01-08T15:30:39.553Z,10.5
2023-01-08T15:41:11.091Z,10.5
2023-01-08T15:46:20.979Z,10.6
2023-01-08T15:51:32.284Z,17.1
2023-01-08T16:02:05.833Z,16.1
2023-01-08T16:07:20.053Z,50.3
2023-01-08T16:12:37.146Z,74
2023-01-08T16:17:46.153Z,18.5
2023-01-08T16:28:19.045Z,17.8
2023-01-08T16:33:34.572Z,108.8
2023-01-08T16:38:46.660Z,69.3
2023-01-08T16:44:02.215Z,54.6
2023-01-08T16:49:16.510Z,64.4
2023-01-08T16:54:28.834Z,60.3
2023-01-08T16:59:40.099Z,56.5
2023-01-08T17:04:49.483Z,28.6
2023-01-08T17:10:06.093Z,20.1
2023-01-08T17:15:24.026Z,30.3
2023-01-08T17:20:29.500Z,22.4
2023-01-08T17:25:44.355Z,26.2
2023-01-08T17:30:55.415Z,24.7
2023-01-08T17:36:07.098Z,39.2
2023-01-08T17:41:20.611Z,37.7
2023-01-08T17:46:32.713Z,51.9
2023-01-08T17:51:43.978Z,38.5
2023-01-08T17:56:55.664Z,37.5
2023-01-08T18:07:32.571Z,50.7
2023-01-08T18:12:43.785Z,60.2
2023-01-08T18:23:16.471Z,23.2
2023-01-08T18:28:32.361Z,19.7
2023-01-08T18:33:44.011Z,24.3
2023-01-08T18:38:57.682Z,19.4
2023-01-08T18:44:09.836Z,19.8
2023-01-08T18:49:20.023Z,41
2023-01-08T18:54:35.148Z,31
2023-01-08T18:59:48.256Z,50.8
2023-01-08T19:04:58.643Z,73.2
2023-01-08T19:10:15.953Z,96.6
2023-01-08T19:15:31.519Z,46.5
2023-01-08T19:20:43.201Z,43
2023-01-08T19:25:56.932Z,37.5
2023-01-08T19:31:07.325Z,40.4
2023-01-08T19:36:17.151Z,33.2
2023-01-08T19:46:47.860Z,24.8
2023-01-08T19:52:10.837Z,29.3
2023-01-08T19:57:24.963Z,21.9
2023-01-08T20:02:37.792Z,51.1
2023-01-08T20:07:48.243Z,29.1
2023-01-08T20:13:00.212Z,24.6
2023-01-08T20:18:22.085Z,35.5
2023-01-08T20:23:40.033Z,29.3
2023-01-08T20:28:54.098Z,22.5
2023-01-08T20:34:06.379Z,26.5
2023-01-08T20:39:20.697Z,20.4
2023-01-08T20:44:38.665Z,24
2023-01-08T20:49:49.836Z,22.1
2023-01-08T20:55:02.563Z,21.9
2023-01-08T21:00:18.699Z,25.9
2023-01-08T21:05:30.967Z,22.1
2023-01-08T21:10:47.715Z,19
2023-01-08T21:15:58.714Z,21.7
2023-01-08T21:21:09.993Z,22.9
2023-01-08T21:37:02.983Z,18.5
2023-01-08T21:42:14.409Z,19.8
2023-01-08T21:47:29.970Z,24.3
2023-01-08T21:52:50.630Z,21
2023-01-08T22:03:23.722Z,22.2
2023-01-08T22:08:38.692Z,18.4
2023-01-08T22:19:13.741Z,16.1
2023-01-08T22:24:24.257Z,16
2023-01-08T22:34:57.078Z,20.1
2023-01-08T22:40:08.807Z,17.5
2023-01-08T22:45:20.699Z,18.9
2023-01-08T22:50:33.582Z,16.3
2023-01-08T23:01:08.549Z,11.3
2023-01-08T23:06:20.120Z,10.6
2023-01-08T23:11:30.823Z,7.7
2023-01-08T23:16:43.583Z,8.7
2023-01-08T23:21:58.846Z,12.5
2023-01-08T23:27:10.425Z,10.6
2023-01-08T23:32:22.859Z,11.1
2023-01-08T23:37:32.742Z,10.2
2023-01-08T23:42:45.347Z,12.7
2023-01-08T23:53:17.568Z,12
2023-01-08T23:58:29.719Z,13.7
